createdAt,value
2022-09-27T00:04:40.701Z,1.30
2022-09-27T00:10:42.602Z,1.10
2022-09-27T00:16:46.724Z,1.27
2022-09-27T00:29:19.516Z,1.10
2022-09-27T00:35:21.452Z,1.20
2022-09-27T00:41:34.143Z,1.33
2022-09-27T00:47:48.647Z,1.40
2022-09-27T00:53:54.168Z,1.20
2022-09-27T01:00:09.891Z,1.40
2022-09-27T01:06:12.512Z,1.40
2022-09-27T01:12:30.301Z,1.00
2022-09-27T01:19:20.549Z,1.30
2022-09-27T01:26:09.840Z,1.40
2022-09-27T01:32:35.917Z,1.00
2022-09-27T01:38:47.952Z,1.13
2022-09-27T01:45:01.213Z,1.10
2022-09-27T01:51:14.594Z,1.20
2022-09-27T01:57:23.431Z,1.10
2022-09-27T02:03:37.528Z,1.10
2022-09-27T02:09:51.502Z,1.17
2022-09-27T02:16:33.886Z,1.10
2022-09-27T02:22:56.888Z,1.13
2022-09-27T02:29:05.189Z,1.33
2022-09-27T02:35:24.859Z,1.20
2022-09-27T02:41:26.863Z,1.47
2022-09-27T02:47:50.212Z,1.47
2022-09-27T02:54:33.777Z,1.60
2022-09-27T03:00:57.950Z,1.60
2022-09-27T03:07:01.519Z,1.60
2022-09-27T03:13:04.929Z,1.30
2022-09-27T03:19:10.330Z,1.30
2022-09-27T03:25:12.311Z,2.20
2022-09-27T03:31:17.595Z,1.90
2022-09-27T03:37:19.620Z,1.57
2022-09-27T03:43:25.216Z,1.80
2022-09-27T03:49:29.943Z,1.97
2022-09-27T03:55:37.672Z,2.60
2022-09-27T04:01:43.355Z,2.40
2022-09-27T04:07:57.802Z,2.07
2022-09-27T04:13:59.726Z,2.53
2022-09-27T04:20:03.482Z,2.57
2022-09-27T04:26:05.855Z,3.10
2022-09-27T04:32:07.765Z,3.10
2022-09-27T04:38:09.676Z,3.10
2022-09-27T04:44:11.686Z,2.97
2022-09-27T04:50:15.289Z,2.87
2022-09-27T04:56:17.354Z,4.03
2022-09-27T05:02:19.467Z,3.73
2022-09-27T05:08:21.680Z,3.70
2022-09-27T05:14:23.649Z,2.00
2022-09-27T05:20:26.110Z,2.23
2022-09-27T05:26:28.043Z,1.60
2022-09-27T05:32:30.021Z,1.73
2022-09-27T05:38:32.141Z,1.00
2022-09-27T05:44:35.342Z,0.90
2022-09-27T05:50:37.279Z,0.90
2022-09-27T05:56:39.215Z,1.10
2022-09-27T06:02:48.987Z,1.17
2022-09-27T06:08:51.097Z,1.80
2022-09-27T06:14:53.235Z,1.60
2022-09-27T06:20:55.490Z,3.27
2022-09-27T06:26:57.440Z,1.37
2022-09-27T06:33:01.889Z,1.40
2022-09-27T06:39:04.167Z,1.50
2022-09-27T06:45:06.797Z,1.20
2022-09-27T06:51:08.750Z,1.27
2022-09-27T06:57:30.804Z,1.10
2022-09-27T07:03:40.133Z,1.23
2022-09-27T07:09:43.263Z,1.30
2022-09-27T07:15:45.303Z,1.20
2022-09-27T07:21:50.371Z,1.20
2022-09-27T07:27:54.335Z,1.37
2022-09-27T07:33:56.668Z,1.03
2022-09-27T07:40:01.976Z,1.03
2022-09-27T07:46:07.989Z,1.17
2022-09-27T07:52:13.149Z,1.37
2022-09-27T07:58:15.059Z,1.00
2022-09-27T08:04:16.978Z,1.00
2022-09-27T08:10:23.785Z,3.47
2022-09-27T08:22:43.602Z,1.50
2022-09-27T08:28:48.404Z,1.17
2022-09-27T08:34:50.331Z,1.00
2022-09-27T08:41:01.520Z,1.27
2022-09-27T08:47:21.647Z,1.13
2022-09-27T08:53:38.146Z,1.00
2022-09-27T09:00:00.881Z,0.80
2022-09-27T09:06:17.903Z,1.00
2022-09-27T09:12:57.212Z,0.90
2022-09-27T09:27:09.290Z,1.10
2022-09-27T09:33:41.342Z,0.97
2022-09-27T09:39:51.382Z,0.90
2022-09-27T09:46:14.564Z,1.50
2022-09-27T09:52:23.625Z,1.00
2022-09-27T09:58:42.809Z,0.90
2022-09-27T10:11:01.503Z,1.00
2022-09-27T10:17:10.907Z,1.10
2022-09-27T10:23:21.476Z,1.43
2022-09-27T10:29:37.862Z,1.30
2022-09-27T10:35:45.006Z,1.53
2022-09-27T10:41:49.514Z,1.43
2022-09-27T10:47:55.047Z,1.50
2022-09-27T10:54:03.434Z,1.77
2022-09-27T11:06:23.848Z,1.20
2022-09-27T11:12:25.817Z,1.40
2022-09-27T11:18:39.539Z,1.20
2022-09-27T11:25:31.551Z,1.40
2022-09-27T11:31:55.565Z,1.73
2022-09-27T11:38:12.297Z,2.40
2022-09-27T11:52:06.296Z,2.10
2022-09-27T11:58:40.460Z,1.97
2022-09-27T12:05:13.255Z,1.93
2022-09-27T12:11:51.584Z,2.07
2022-09-27T12:18:08.070Z,1.40
2022-09-27T12:24:21.812Z,0.87
2022-09-27T12:30:23.827Z,1.10
2022-09-27T12:36:38.878Z,1.23
2022-09-27T12:43:11.170Z,1.30
2022-09-27T12:49:42.524Z,1.30
2022-09-27T12:56:06.580Z,1.83
2022-09-27T13:02:39.150Z,1.97
2022-09-27T13:09:00.609Z,1.60
2022-09-27T13:15:30.717Z,1.70
2022-09-27T13:22:00.060Z,1.60
2022-09-27T13:28:02.657Z,1.30
2022-09-27T13:34:04.911Z,1.90
2022-09-27T13:40:15.973Z,1.20
2022-09-27T13:46:23.302Z,1.30
2022-09-27T13:52:56.451Z,1.27
2022-09-27T13:59:02.654Z,1.50
2022-09-27T14:05:11.103Z,1.20
2022-09-27T14:11:21.525Z,1.00
2022-09-27T14:17:26.088Z,1.80
2022-09-27T14:23:34.702Z,2.43
2022-09-27T14:29:47.851Z,1.20
2022-09-27T14:36:08.827Z,1.10
2022-09-27T14:43:39.126Z,1.17
2022-09-27T14:50:01.450Z,1.10
2022-09-27T14:56:04.406Z,1.10
2022-09-27T15:02:20.319Z,3.07
2022-09-27T15:08:25.601Z,1.50
2022-09-27T15:14:32.928Z,1.80
2022-09-27T15:20:35.901Z,1.87
2022-09-27T15:26:47.329Z,1.40
2022-09-27T15:32:53.052Z,1.10
2022-09-27T15:39:12.227Z,1.30
2022-09-27T15:45:49.128Z,1.63
2022-09-27T16:05:03.437Z,1.30
2022-09-27T16:11:05.724Z,5.93
2022-09-27T16:17:07.636Z,5.03
2022-09-27T16:23:09.655Z,1.40
2022-09-27T16:29:14.348Z,1.77
2022-09-27T16:35:18.925Z,1.90
2022-09-27T16:41:22.359Z,2.13
2022-09-27T16:47:24.275Z,1.90
2022-09-27T16:53:26.213Z,1.70
2022-09-27T16:59:34.525Z,1.67
2022-09-27T17:05:39.583Z,1.97
2022-09-27T17:11:46.820Z,1.80
2022-09-27T17:17:53.281Z,2.70
2022-09-27T17:23:56.206Z,2.50
2022-09-27T17:29:58.686Z,2.37
2022-09-27T17:36:09.528Z,2.70
2022-09-27T17:42:12.580Z,2.63
2022-09-27T17:48:36.519Z,2.33
2022-09-27T17:54:38.790Z,2.53
2022-09-27T18:00:41.185Z,4.70
2022-09-27T18:06:46.299Z,2.90
2022-09-27T18:12:50.688Z,3.50
2022-09-27T18:19:03.220Z,2.90
2022-09-27T18:25:09.390Z,4.60
2022-09-27T18:31:16.931Z,2.97
2022-09-27T18:37:19.641Z,4.00
2022-09-27T18:43:26.835Z,3.30
2022-09-27T18:49:34.195Z,3.07
2022-09-27T18:55:49.006Z,2.87
2022-09-27T19:01:54.251Z,2.70
2022-09-27T19:07:56.262Z,2.70
2022-09-27T19:13:59.938Z,3.43
2022-09-27T19:20:02.876Z,2.10
2022-09-27T19:26:08.601Z,3.10
2022-09-27T19:32:10.568Z,3.10
2022-09-27T19:38:36.429Z,2.50
2022-09-27T19:44:38.296Z,3.13
2022-09-27T19:50:40.212Z,2.87
2022-09-27T19:56:42.133Z,3.30
2022-09-27T20:02:55.508Z,2.90
2022-09-27T20:15:44.339Z,3.07
2022-09-27T20:21:46.356Z,2.87
2022-09-27T20:27:48.263Z,2.87
2022-09-27T20:33:51.019Z,3.03
2022-09-27T20:39:53.545Z,3.20
2022-09-27T20:52:33.778Z,3.60
2022-09-27T20:58:35.645Z,4.90
2022-09-27T21:04:37.871Z,3.30
2022-09-27T21:10:42.259Z,3.90
2022-09-27T21:16:45.097Z,3.50
2022-09-27T21:23:06.244Z,3.63
2022-09-27T21:29:11.664Z,3.60
2022-09-27T21:35:18.475Z,3.70
2022-09-27T21:47:45.009Z,3.70
2022-09-27T21:54:09.572Z,3.67
2022-09-27T22:00:14.953Z,3.33
2022-09-27T22:06:27.477Z,3.53
2022-09-27T22:12:32.218Z,3.60
2022-09-27T22:18:37.347Z,3.20
2022-09-27T22:24:39.265Z,2.50
2022-09-27T22:30:41.208Z,2.40
2022-09-27T22:36:46.117Z,2.60
2022-09-27T22:49:07.278Z,2.00
2022-09-27T22:55:09.669Z,2.10
2022-09-27T23:01:19.577Z,2.10
2022-09-27T23:07:21.777Z,2.40
2022-09-27T23:13:23.864Z,2.03
2022-09-27T23:19:26.916Z,2.00
2022-09-27T23:25:28.975Z,2.47
2022-09-27T23:31:32.757Z,2.40
2022-09-27T23:37:34.764Z,2.50
2022-09-27T23:43:37.026Z,2.50
2022-09-27T23:49:38.909Z,3.30
2022-09-27T23:55:40.794Z,2.80
